sensor_id;sensor_type;location;lat;lon;timestamp;pressure;altitude;pressure_sealevel;temperature;humidity
59367;BME280;45163;47.690;11.770;2023-12-20T00:01:08;93309.03;;;2.02;100.00
59367;BME280;45163;47.690;11.770;2023-12-20T00:03:34;93306.31;;;1.98;100.00
59367;BME280;45163;47.690;11.770;2023-12-20T00:06:00;93299.38;;;1.90;100.00
59367;BME280;45163;47.690;11.770;2023-12-20T00:08:26;93303.59;;;1.84;100.00
59367;BME280;45163;47.690;11.770;2023-12-20T00:10:52;93295.09;;;1.82;100.00
59367;BME280;45163;47.690;11.770;2023-12-20T00:13:18;93300.03;;;1.66;100.00
59367;BME280;45163;47.690;11.770;2023-12-20T00:15:44;93285.34;;;1.49;100.00
59367;BME280;45163;47.690;11.770;2023-12-20T00:18:10;93291.81;;;1.34;100.00
59367;BME280;45163;47.690;11.770;2023-12-20T00:20:36;93287.50;;;1.18;100.00
59367;BME280;45163;47.690;11.770;2023-12-20T00:23:02;93283.25;;;1.10;100.00
59367;BME280;45163;47.690;11.770;2023-12-20T00:25:28;93278.53;;;0.93;100.00
59367;BME280;45163;47.690;11.770;2023-12-20T00:27:57;93275.06;;;0.96;100.00
59367;BME280;45163;47.690;11.770;2023-12-20T00:30:23;93280.88;;;1.02;100.00
59367;BME280;45163;47.690;11.770;2023-12-20T00:32:49;93272.47;;;1.07;100.00
59367;BME280;45163;47.690;11.770;2023-12-20T00:35:16;93259.44;;;1.09;100.00
59367;BME280;45163;47.690;11.770;2023-12-20T00:37:45;93263.31;;;1.18;100.00
59367;BME280;45163;47.690;11.770;2023-12-20T00:40:11;93242.28;;;1.38;100.00
59367;BME280;45163;47.690;11.770;2023-12-20T00:42:37;93240.78;;;1.44;100.00
59367;BME280;45163;47.690;11.770;2023-12-20T00:45:03;93239.69;;;1.60;100.00
59367;BME280;45163;47.690;11.770;2023-12-20T00:47:31;93239.72;;;1.63;100.00
59367;BME280;45163;47.690;11.770;2023-12-20T00:49:57;93235.44;;;1.55;100.00
59367;BME280;45163;47.690;11.770;2023-12-20T00:52:23;93235.44;;;1.52;100.00
59367;BME280;45163;47.690;11.770;2023-12-20T00:54:50;93231.81;;;1.15;100.00
59367;BME280;45163;47.690;11.770;2023-12-20T00:57:16;93230.59;;;1.02;100.00
59367;BME280;45163;47.690;11.770;2023-12-20T00:59:42;93225.22;;;1.02;100.00
59367;BME280;45163;47.690;11.770;2023-12-20T01:02:08;93222.84;;;0.90;100.00
59367;BME280;45163;47.690;11.770;2023-12-20T01:04:34;93228.97;;;0.90;100.00
59367;BME280;45163;47.690;11.770;2023-12-20T01:07:07;93219.06;;;1.02;100.00
59367;BME280;45163;47.690;11.770;2023-12-20T01:09:33;93222.94;;;1.11;100.00
59367;BME280;45163;47.690;11.770;2023-12-20T01:11:59;93226.84;;;1.17;100.00
59367;BME280;45163;47.690;11.770;2023-12-20T01:14:25;93220.72;;;1.24;100.00
59367;BME280;45163;47.690;11.770;2023-12-20T01:16:51;93225.69;;;1.18;100.00
59367;BME280;45163;47.690;11.770;2023-12-20T01:19:17;93228.06;;;1.34;100.00
59367;BME280;45163;47.690;11.770;2023-12-20T01:21:43;93213.06;;;1.26;100.00
59367;BME280;45163;47.690;11.770;2023-12-20T01:24:09;93207.59;;;1.12;100.00
59367;BME280;45163;47.690;11.770;2023-12-20T01:26:35;93212.13;;;0.93;100.00
59367;BME280;45163;47.690;11.770;2023-12-20T01:29:01;93208.22;;;0.87;100.00
59367;BME280;45163;47.690;11.770;2023-12-20T01:31:27;93198.91;;;0.70;100.00
59367;BME280;45163;47.690;11.770;2023-12-20T01:33:53;93195.09;;;0.75;100.00
59367;BME280;45163;47.690;11.770;2023-12-20T01:36:19;93197.31;;;0.55;100.00
59367;BME280;45163;47.690;11.770;2023-12-20T01:38:45;93187.63;;;0.43;100.00
59367;BME280;45163;47.690;11.770;2023-12-20T01:41:11;93194.81;;;0.32;100.00
59367;BME280;45163;47.690;11.770;2023-12-20T01:43:37;93185.13;;;0.17;100.00
59367;BME280;45163;47.690;11.770;2023-12-20T01:46:04;93175.59;;;0.23;100.00
59367;BME280;45163;47.690;11.770;2023-12-20T01:48:30;93184.81;;;0.29;100.00
59367;BME280;45163;47.690;11.770;2023-12-20T01:50:59;93178.69;;;0.29;100.00
59367;BME280;45163;47.690;11.770;2023-12-20T01:53:26;93180.19;;;0.22;100.00
59367;BME280;45163;47.690;11.770;2023-12-20T01:55:55;93178.69;;;0.29;100.00
59367;BME280;45163;47.690;11.770;2023-12-20T01:58:22;93176.00;;;0.29;100.00
59367;BME280;45163;47.690;11.770;2023-12-20T02:00:49;93176.44;;;0.34;100.00
59367;BME280;45163;47.690;11.770;2023-12-20T02:03:16;93183.34;;;0.35;100.00
59367;BME280;45163;47.690;11.770;2023-12-20T02:05:43;93172.09;;;0.19;100.00
59367;BME280;45163;47.690;11.770;2023-12-20T02:08:09;93163.31;;;0.22;100.00
59367;BME280;45163;47.690;11.770;2023-12-20T02:10:35;93172.81;;;0.12;100.00
59367;BME280;45163;47.690;11.770;2023-12-20T02:13:01;93176.25;;;0.09;100.00
59367;BME280;45163;47.690;11.770;2023-12-20T02:15:28;93182.09;;;0.22;100.00
59367;BME280;45163;47.690;11.770;2023-12-20T02:17:54;93190.59;;;0.31;100.00
59367;BME280;45163;47.690;11.770;2023-12-20T02:20:26;93185.63;;;0.30;100.00
59367;BME280;45163;47.690;11.770;2023-12-20T02:22:52;93167.16;;;0.24;100.00
59367;BME280;45163;47.690;11.770;2023-12-20T02:25:18;93162.59;;;0.32;100.00
59367;BME280;45163;47.690;11.770;2023-12-20T02:28:00;93158.34;;;0.24;100.00
59367;BME280;45163;47.690;11.770;2023-12-20T02:30:27;93165.28;;;0.32;100.00
59367;BME280;45163;47.690;11.770;2023-12-20T02:32:53;93157.97;;;0.29;100.00
59367;BME280;45163;47.690;11.770;2023-12-20T02:35:19;93157.53;;;0.20;100.00
59367;BME280;45163;47.690;11.770;2023-12-20T02:37:57;93160.66;;;0.26;100.00
59367;BME280;45163;47.690;11.770;2023-12-20T02:40:23;93164.22;;;0.44;100.00
59367;BME280;45163;47.690;11.770;2023-12-20T02:42:49;93169.34;;;0.63;100.00
59367;BME280;45163;47.690;11.770;2023-12-20T02:45:15;93172.44;;;0.69;100.00
59367;BME280;45163;47.690;11.770;2023-12-20T02:47:41;93155.59;;;0.79;100.00
59367;BME280;45163;47.690;11.770;2023-12-20T02:50:07;93154.41;;;0.69;100.00
59367;BME280;45163;47.690;11.770;2023-12-20T02:52:33;93164.47;;;0.87;100.00
59367;BME280;45163;47.690;11.770;2023-12-20T02:54:59;93163.63;;;0.72;100.00
59367;BME280;45163;47.690;11.770;2023-12-20T02:57:25;93174.34;;;0.65;100.00
59367;BME280;45163;47.690;11.770;2023-12-20T02:59:51;93163.63;;;0.68;100.00
59367;BME280;45163;47.690;11.770;2023-12-20T03:02:17;93172.78;;;0.60;100.00
59367;BME280;45163;47.690;11.770;2023-12-20T03:04:43;93182.03;;;0.70;100.00
59367;BME280;45163;47.690;11.770;2023-12-20T03:07:09;93164.81;;;0.78;100.00
59367;BME280;45163;47.690;11.770;2023-12-20T03:09:35;93157.94;;;0.84;100.00
59367;BME280;45163;47.690;11.770;2023-12-20T03:12:01;93161.41;;;0.92;100.00
59367;BME280;45163;47.690;11.770;2023-12-20T03:14:27;93154.50;;;0.91;100.00
59367;BME280;45163;47.690;11.770;2023-12-20T03:16:53;93160.72;;;1.02;100.00
59367;BME280;45163;47.690;11.770;2023-12-20T03:19:18;93153.03;;;1.01;100.00
59367;BME280;45163;47.690;11.770;2023-12-20T03:21:45;93153.38;;;0.88;100.00
59367;BME280;45163;47.690;11.770;2023-12-20T03:24:11;93165.31;;;1.02;100.00
59367;BME280;45163;47.690;11.770;2023-12-20T03:26:37;93164.16;;;0.99;100.00
59367;BME280;45163;47.690;11.770;2023-12-20T03:29:03;93158.75;;;0.88;100.00
59367;BME280;45163;47.690;11.770;2023-12-20T03:31:29;93156.41;;;0.87;100.00
59367;BME280;45163;47.690;11.770;2023-12-20T03:33:55;93161.78;;;0.87;100.00
59367;BME280;45163;47.690;11.770;2023-12-20T03:36:21;93156.31;;;0.69;100.00
59367;BME280;45163;47.690;11.770;2023-12-20T03:38:47;93154.81;;;0.71;100.00
59367;BME280;45163;47.690;11.770;2023-12-20T03:41:13;93160.31;;;0.96;100.00
59367;BME280;45163;47.690;11.770;2023-12-20T03:43:39;93167.25;;;1.08;100.00
59367;BME280;45163;47.690;11.770;2023-12-20T03:46:05;93163.03;;;1.07;100.00
59367;BME280;45163;47.690;11.770;2023-12-20T03:48:33;93134.56;;;0.88;100.00
59367;BME280;45163;47.690;11.770;2023-12-20T03:50:59;93153.16;;;1.36;100.00
59367;BME280;45163;47.690;11.770;2023-12-20T03:53:25;93148.56;;;1.40;100.00
59367;BME280;45163;47.690;11.770;2023-12-20T03:55:51;93149.31;;;1.41;100.00
59367;BME280;45163;47.690;11.770;2023-12-20T03:58:17;93140.13;;;1.38;100.00
59367;BME280;45163;47.690;11.770;2023-12-20T04:00:44;93125.56;;;1.61;100.00
59367;BME280;45163;47.690;11.770;2023-12-20T04:03:10;93114.00;;;2.49;100.00
59367;BME280;45163;47.690;11.770;2023-12-20T04:05:40;93109.25;;;3.00;100.00
59367;BME280;45163;47.690;11.770;2023-12-20T04:08:07;93114.25;;;3.75;100.00
59367;BME280;45163;47.690;11.770;2023-12-20T04:10:33;93108.72;;;3.96;100.00
59367;BME280;45163;47.690;11.770;2023-12-20T04:12:59;93101.91;;;4.67;100.00
59367;BME280;45163;47.690;11.770;2023-12-20T04:15:25;93102.22;;;5.14;100.00
59367;BME280;45163;47.690;11.770;2023-12-20T04:17:57;93100.84;;;5.30;100.00
59367;BME280;45163;47.690;11.770;2023-12-20T04:20:23;93108.13;;;5.02;100.00
59367;BME280;45163;47.690;11.770;2023-12-20T04:22:49;93106.09;;;4.34;100.00
59367;BME280;45163;47.690;11.770;2023-12-20T04:25:15;93113.00;;;4.39;100.00
59367;BME280;45163;47.690;11.770;2023-12-20T04:27:41;93126.09;;;4.44;100.00
59367;BME280;45163;47.690;11.770;2023-12-20T04:30:07;93116.13;;;4.34;100.00
59367;BME280;45163;47.690;11.770;2023-12-20T04:32:33;93121.44;;;4.86;100.00
59367;BME280;45163;47.690;11.770;2023-12-20T04:34:59;93120.56;;;4.58;100.00
59367;BME280;45163;47.690;11.770;2023-12-20T04:37:25;93130.34;;;5.20;100.00
59367;BME280;45163;47.690;11.770;2023-12-20T04:39:51;93139.53;;;4.92;100.00
59367;BME280;45163;47.690;11.770;2023-12-20T04:42:17;93155.19;;;4.70;100.00
59367;BME280;45163;47.690;11.770;2023-12-20T04:44:43;93156.34;;;5.11;100.00
59367;BME280;45163;47.690;11.770;2023-12-20T04:47:09;93152.19;;;5.37;100.00
59367;BME280;45163;47.690;11.770;2023-12-20T04:49:35;93141.44;;;5.30;100.00
59367;BME280;45163;47.690;11.770;2023-12-20T04:52:01;93144.59;;;5.86;100.00
59367;BME280;45163;47.690;11.770;2023-12-20T04:54:27;93156.75;;;5.74;100.00
59367;BME280;45163;47.690;11.770;2023-12-20T04:56:53;93152.69;;;5.59;100.00
59367;BME280;45163;47.690;11.770;2023-12-20T04:59:19;93155.69;;;5.34;100.00
59367;BME280;45163;47.690;11.770;2023-12-20T05:01:45;93163.09;;;5.30;100.00
59367;BME280;45163;47.690;11.770;2023-12-20T05:04:11;93167.03;;;5.56;100.00
59367;BME280;45163;47.690;11.770;2023-12-20T05:06:37;93176.81;;;5.46;100.00
59367;BME280;45163;47.690;11.770;2023-12-20T05:09:03;93168.75;;;5.39;100.00
59367;BME280;45163;47.690;11.770;2023-12-20T05:11:29;93180.41;;;5.36;100.00
59367;BME280;45163;47.690;11.770;2023-12-20T05:13:55;93163.56;;;5.21;100.00
59367;BME280;45163;47.690;11.770;2023-12-20T05:16:21;93154.03;;;5.43;100.00
59367;BME280;45163;47.690;11.770;2023-12-20T05:18:48;93135.19;;;5.36;100.00
59367;BME280;45163;47.690;11.770;2023-12-20T05:21:16;93126.56;;;5.45;100.00
59367;BME280;45163;47.690;11.770;2023-12-20T05:23:42;93135.72;;;5.85;100.00
59367;BME280;45163;47.690;11.770;2023-12-20T05:26:08;93137.31;;;5.52;100.00
59367;BME280;45163;47.690;11.770;2023-12-20T05:28:34;93128.47;;;5.75;100.00
59367;BME280;45163;47.690;11.770;2023-12-20T05:31:00;93136.38;;;5.62;100.00
59367;BME280;45163;47.690;11.770;2023-12-20T05:33:26;93140.81;;;5.49;100.00
59367;BME280;45163;47.690;11.770;2023-12-20T05:35:52;93153.00;;;5.64;100.00
59367;BME280;45163;47.690;11.770;2023-12-20T05:38:18;93139.94;;;5.86;100.00
59367;BME280;45163;47.690;11.770;2023-12-20T05:40:44;93139.34;;;5.71;100.00
59367;BME280;45163;47.690;11.770;2023-12-20T05:43:10;93143.25;;;5.40;100.00
59367;BME280;45163;47.690;11.770;2023-12-20T05:45:35;93150.19;;;5.71;100.00
59367;BME280;45163;47.690;11.770;2023-12-20T05:48:05;93163.19;;;5.84;100.00
59367;BME280;45163;47.690;11.770;2023-12-20T05:50:31;93160.03;;;5.58;100.00
59367;BME280;45163;47.690;11.770;2023-12-20T05:52:57;93164.66;;;5.61;100.00
59367;BME280;45163;47.690;11.770;2023-12-20T05:55:23;93180.94;;;5.58;100.00
59367;BME280;45163;47.690;11.770;2023-12-20T05:58:01;93181.91;;;5.71;100.00
59367;BME280;45163;47.690;11.770;2023-12-20T06:00:27;93187.56;;;5.53;100.00
59367;BME280;45163;47.690;11.770;2023-12-20T06:02:53;93186.94;;;5.38;100.00
59367;BME280;45163;47.690;11.770;2023-12-20T06:05:19;93187.38;;;5.37;100.00
59367;BME280;45163;47.690;11.770;2023-12-20T06:08:01;93199.06;;;5.27;100.00
59367;BME280;45163;47.690;11.770;2023-12-20T06:10:29;93202.44;;;5.00;100.00
59367;BME280;45163;47.690;11.770;2023-12-20T06:12:55;93208.44;;;4.77;100.00
59367;BME280;45163;47.690;11.770;2023-12-20T06:15:22;93212.94;;;4.91;100.00
59367;BME280;45163;47.690;11.770;2023-12-20T06:18:03;93217.69;;;4.80;100.00
59367;BME280;45163;47.690;11.770;2023-12-20T06:20:29;93235.41;;;4.84;100.00
59367;BME280;45163;47.690;11.770;2023-12-20T06:22:55;93242.25;;;4.99;100.00
59367;BME280;45163;47.690;11.770;2023-12-20T06:25:21;93252.44;;;4.81;100.00
59367;BME280;45163;47.690;11.770;2023-12-20T06:28:02;93248.47;;;4.93;100.00
59367;BME280;45163;47.690;11.770;2023-12-20T06:30:28;93259.44;;;4.75;100.00
59367;BME280;45163;47.690;11.770;2023-12-20T06:32:54;93252.81;;;4.80;100.00
59367;BME280;45163;47.690;11.770;2023-12-20T06:35:23;93271.03;;;4.72;100.00
59367;BME280;45163;47.690;11.770;2023-12-20T06:37:58;93259.38;;;4.82;100.00
59367;BME280;45163;47.690;11.770;2023-12-20T06:40:24;93287.63;;;4.78;100.00
59367;BME280;45163;47.690;11.770;2023-12-20T06:42:50;93274.97;;;4.64;100.00
59367;BME280;45163;47.690;11.770;2023-12-20T06:45:16;93279.31;;;4.50;100.00
59367;BME280;45163;47.690;11.770;2023-12-20T06:47:41;93292.88;;;4.43;100.00
59367;BME280;45163;47.690;11.770;2023-12-20T06:50:08;93296.41;;;4.30;100.00
59367;BME280;45163;47.690;11.770;2023-12-20T06:52:34;93301.09;;;4.22;100.00
59367;BME280;45163;47.690;11.770;2023-12-20T06:55:01;93298.88;;;4.06;100.00
59367;BME280;45163;47.690;11.770;2023-12-20T06:57:27;93306.59;;;3.97;100.00
59367;BME280;45163;47.690;11.770;2023-12-20T06:59:53;93314.00;;;3.86;100.00
59367;BME280;45163;47.690;11.770;2023-12-20T07:02:19;93320.13;;;3.93;100.00
59367;BME280;45163;47.690;11.770;2023-12-20T07:04:45;93315.91;;;3.89;100.00
59367;BME280;45163;47.690;11.770;2023-12-20T07:07:12;93329.78;;;3.84;100.00
59367;BME280;45163;47.690;11.770;2023-12-20T07:09:38;93329.00;;;3.90;100.00
59367;BME280;45163;47.690;11.770;2023-12-20T07:12:04;93345.22;;;3.87;100.00
59367;BME280;45163;47.690;11.770;2023-12-20T07:14:30;93344.13;;;3.63;100.00
59367;BME280;45163;47.690;11.770;2023-12-20T07:16:56;93350.28;;;3.78;100.00
59367;BME280;45163;47.690;11.770;2023-12-20T07:19:22;93352.22;;;3.70;100.00
59367;BME280;45163;47.690;11.770;2023-12-20T07:21:48;93362.25;;;3.66;100.00
59367;BME280;45163;47.690;11.770;2023-12-20T07:24:15;93363.41;;;3.68;100.00
59367;BME280;45163;47.690;11.770;2023-12-20T07:26:40;93359.19;;;3.64;100.00
59367;BME280;45163;47.690;11.770;2023-12-20T07:29:06;93376.09;;;3.75;100.00
59367;BME280;45163;47.690;11.770;2023-12-20T07:31:32;93382.66;;;3.78;100.00
59367;BME280;45163;47.690;11.770;2023-12-20T07:33:58;93376.91;;;3.65;100.00
59367;BME280;45163;47.690;11.770;2023-12-20T07:36:24;93357.97;;;3.75;100.00
59367;BME280;45163;47.690;11.770;2023-12-20T07:38:50;93371.50;;;3.50;100.00
59367;BME280;45163;47.690;11.770;2023-12-20T07:41:16;93375.75;;;3.66;100.00
59367;BME280;45163;47.690;11.770;2023-12-20T07:43:42;93365.34;;;3.50;100.00
59367;BME280;45163;47.690;11.770;2023-12-20T07:46:08;93376.91;;;3.68;100.00
59367;BME280;45163;47.690;11.770;2023-12-20T07:48:35;93382.34;;;3.47;100.00
59367;BME280;45163;47.690;11.770;2023-12-20T07:51:02;93375.78;;;3.48;100.00
59367;BME280;45163;47.690;11.770;2023-12-20T07:53:28;93359.56;;;3.55;100.00
59367;BME280;45163;47.690;11.770;2023-12-20T07:55:54;93363.44;;;3.33;100.00
59367;BME280;45163;47.690;11.770;2023-12-20T07:58:21;93372.31;;;3.30;100.00
59367;BME280;45163;47.690;11.770;2023-12-20T08:00:47;93375.41;;;3.32;100.00
59367;BME280;45163;47.690;11.770;2023-12-20T08:03:13;93380.38;;;3.65;100.00
59367;BME280;45163;47.690;11.770;2023-12-20T08:05:39;93383.84;;;3.69;100.00
59367;BME280;45163;47.690;11.770;2023-12-20T08:08:12;93381.53;;;3.54;100.00
59367;BME280;45163;47.690;11.770;2023-12-20T08:10:38;93378.47;;;3.44;100.00
59367;BME280;45163;47.690;11.770;2023-12-20T08:13:04;93389.25;;;3.34;100.00
59367;BME280;45163;47.690;11.770;2023-12-20T08:15:30;93388.50;;;3.40;100.00
59367;BME280;45163;47.690;11.770;2023-12-20T08:18:02;93387.34;;;3.41;100.00
59367;BME280;45163;47.690;11.770;2023-12-20T08:20:28;93391.56;;;3.53;100.00
59367;BME280;45163;47.690;11.770;2023-12-20T08:22:54;93385.41;;;3.42;100.00
59367;BME280;45163;47.690;11.770;2023-12-20T08:25:20;93383.47;;;3.49;100.00
59367;BME280;45163;47.690;11.770;2023-12-20T08:27:46;93399.63;;;3.71;100.00
59367;BME280;45163;47.690;11.770;2023-12-20T08:30:12;93395.06;;;3.36;100.00
59367;BME280;45163;47.690;11.770;2023-12-20T08:32:38;93390.78;;;3.70;100.00
59367;BME280;45163;47.690;11.770;2023-12-20T08:35:04;93396.56;;;3.62;100.00
59367;BME280;45163;47.690;11.770;2023-12-20T08:37:31;93400.81;;;3.59;100.00
59367;BME280;45163;47.690;11.770;2023-12-20T08:39:57;93405.47;;;3.52;100.00
59367;BME280;45163;47.690;11.770;2023-12-20T08:42:23;93405.81;;;3.54;100.00
59367;BME280;45163;47.690;11.770;2023-12-20T08:44:50;93405.81;;;3.46;100.00
59367;BME280;45163;47.690;11.770;2023-12-20T08:47:16;93420.50;;;3.35;100.00
59367;BME280;45163;47.690;11.770;2023-12-20T08:49:43;93423.94;;;3.46;100.00
59367;BME280;45163;47.690;11.770;2023-12-20T08:52:09;93430.50;;;3.45;100.00
59367;BME280;45163;47.690;11.770;2023-12-20T08:54:35;93425.13;;;3.52;100.00
59367;BME280;45163;47.690;11.770;2023-12-20T08:57:01;93427.81;;;3.52;100.00
59367;BME280;45163;47.690;11.770;2023-12-20T08:59:27;93420.09;;;3.40;100.00
59367;BME280;45163;47.690;11.770;2023-12-20T09:01:53;93425.47;;;3.50;100.00
59367;BME280;45163;47.690;11.770;2023-12-20T09:04:20;93429.72;;;3.41;100.00
59367;BME280;45163;47.690;11.770;2023-12-20T09:06:46;93427.03;;;3.52;100.00
59367;BME280;45163;47.690;11.770;2023-12-20T09:09:12;93429.34;;;3.49;100.00
59367;BME280;45163;47.690;11.770;2023-12-20T09:11:40;93431.66;;;3.51;100.00
59367;BME280;45163;47.690;11.770;2023-12-20T09:14:06;93433.59;;;3.40;100.00
59367;BME280;45163;47.690;11.770;2023-12-20T09:16:32;93427.03;;;3.30;100.00
59367;BME280;45163;47.690;11.770;2023-12-20T09:18:58;93432.03;;;3.17;100.00
59367;BME280;45163;47.690;11.770;2023-12-20T09:21:24;93430.09;;;3.21;100.00
59367;BME280;45163;47.690;11.770;2023-12-20T09:23:51;93423.97;;;3.32;100.00
59367;BME280;45163;47.690;11.770;2023-12-20T09:26:17;93429.72;;;3.19;100.00
59367;BME280;45163;47.690;11.770;2023-12-20T09:28:43;93433.19;;;3.16;100.00
59367;BME280;45163;47.690;11.770;2023-12-20T09:31:09;93424.72;;;3.25;100.00
59367;BME280;45163;47.690;11.770;2023-12-20T09:33:35;93433.59;;;3.40;100.00
59367;BME280;45163;47.690;11.770;2023-12-20T09:36:01;93432.81;;;3.46;100.00
59367;BME280;45163;47.690;11.770;2023-12-20T09:38:30;93420.88;;;3.40;100.00
59367;BME280;45163;47.690;11.770;2023-12-20T09:40:56;93413.56;;;3.27;100.00
59367;BME280;45163;47.690;11.770;2023-12-20T09:43:24;93406.63;;;3.43;100.00
59367;BME280;45163;47.690;11.770;2023-12-20T09:45:53;93400.81;;;3.41;100.00
59367;BME280;45163;47.690;11.770;2023-12-20T09:48:19;93399.28;;;3.47;100.00
59367;BME280;45163;47.690;11.770;2023-12-20T09:50:46;93388.50;;;3.47;100.00
59367;BME280;45163;47.690;11.770;2023-12-20T09:53:15;93395.44;;;3.48;100.00
59367;BME280;45163;47.690;11.770;2023-12-20T09:55:42;93384.63;;;3.34;100.00
59367;BME280;45163;47.690;11.770;2023-12-20T09:58:08;93388.13;;;3.31;100.00
59367;BME280;45163;47.690;11.770;2023-12-20T10:00:34;93394.63;;;3.59;100.00
59367;BME280;45163;47.690;11.770;2023-12-20T10:03:01;93385.78;;;3.62;100.00
59367;BME280;45163;47.690;11.770;2023-12-20T10:05:29;93393.81;;;3.83;100.00
59367;BME280;45163;47.690;11.770;2023-12-20T10:07:56;93395.75;;;3.79;100.00
59367;BME280;45163;47.690;11.770;2023-12-20T10:10:22;93389.59;;;3.79;100.00
59367;BME280;45163;47.690;11.770;2023-12-20T10:15:32;93372.63;;;3.89;100.00
59367;BME280;45163;47.690;11.770;2023-12-20T10:18:05;93365.22;;;4.07;100.00
59367;BME280;45163;47.690;11.770;2023-12-20T10:20:31;93368.28;;;4.09;100.00
59367;BME280;45163;47.690;11.770;2023-12-20T10:22:58;93367.03;;;4.35;100.00
59367;BME280;45163;47.690;11.770;2023-12-20T10:25:25;93363.53;;;4.42;100.00
59367;BME280;45163;47.690;11.770;2023-12-20T10:28:11;93353.00;;;4.58;100.00
59367;BME280;45163;47.690;11.770;2023-12-20T10:30:38;93351.13;;;4.52;100.00
59367;BME280;45163;47.690;11.770;2023-12-20T10:33:06;93355.25;;;4.74;100.00
59367;BME280;45163;47.690;11.770;2023-12-20T10:35:33;93354.38;;;4.84;100.00
59367;BME280;45163;47.690;11.770;2023-12-20T10:38:03;93345.88;;;4.89;100.00
59367;BME280;45163;47.690;11.770;2023-12-20T10:40:30;93350.38;;;5.07;100.00
59367;BME280;45163;47.690;11.770;2023-12-20T10:42:58;93339.69;;;4.89;100.00
59367;BME280;45163;47.690;11.770;2023-12-20T10:45:24;93340.81;;;4.95;100.00
59367;BME280;45163;47.690;11.770;2023-12-20T10:47:50;93338.75;;;5.10;100.00
59367;BME280;45163;47.690;11.770;2023-12-20T10:50:18;93335.75;;;4.97;100.00
59367;BME280;45163;47.690;11.770;2023-12-20T10:52:45;93332.69;;;4.95;100.00
59367;BME280;45163;47.690;11.770;2023-12-20T10:55:12;93334.81;;;5.18;100.00
59367;BME280;45163;47.690;11.770;2023-12-20T10:57:39;93337.97;;;5.09;100.00
59367;BME280;45163;47.690;11.770;2023-12-20T11:00:06;93335.38;;;4.36;100.00
59367;BME280;45163;47.690;11.770;2023-12-20T11:02:39;93325.97;;;4.62;100.00
59367;BME280;45163;47.690;11.770;2023-12-20T11:08:13;93326.44;;;4.42;100.00
59367;BME280;45163;47.690;11.770;2023-12-20T11:11:01;93326.84;;;4.41;100.00
59367;BME280;45163;47.690;11.770;2023-12-20T11:13:58;93323.75;;;4.42;100.00
59367;BME280;45163;47.690;11.770;2023-12-20T11:16:25;93321.03;;;4.46;100.00
59367;BME280;45163;47.690;11.770;2023-12-20T11:18:51;93328.34;;;4.53;100.00
59367;BME280;45163;47.690;11.770;2023-12-20T11:21:19;93313.66;;;4.54;100.00
59367;BME280;45163;47.690;11.770;2023-12-20T11:23:45;93323.06;;;4.31;100.00
59367;BME280;45163;47.690;11.770;2023-12-20T11:26:15;93317.22;;;4.36;100.00
59367;BME280;45163;47.690;11.770;2023-12-20T11:28:41;93307.78;;;3.92;100.00
59367;BME280;45163;47.690;11.770;2023-12-20T11:31:07;93312.38;;;4.06;100.00
59367;BME280;45163;47.690;11.770;2023-12-20T11:33:37;93322.41;;;4.02;100.00
59367;BME280;45163;47.690;11.770;2023-12-20T11:36:13;93322.41;;;4.06;100.00
59367;BME280;45163;47.690;11.770;2023-12-20T11:38:58;93325.19;;;3.81;100.00
59367;BME280;45163;47.690;11.770;2023-12-20T11:41:26;93334.06;;;3.74;100.00
59367;BME280;45163;47.690;11.770;2023-12-20T11:43:56;93332.50;;;3.84;100.00
59367;BME280;45163;47.690;11.770;2023-12-20T11:46:22;93329.41;;;3.89;100.00
59367;BME280;45163;47.690;11.770;2023-12-20T11:48:48;93321.28;;;3.92;100.00
59367;BME280;45163;47.690;11.770;2023-12-20T11:51:14;93332.53;;;3.77;100.00
59367;BME280;45163;47.690;11.770;2023-12-20T11:53:40;93338.72;;;3.73;100.00
59367;BME280;45163;47.690;11.770;2023-12-20T11:56:08;93321.34;;;3.74;100.00
59367;BME280;45163;47.690;11.770;2023-12-20T11:58:36;93321.75;;;3.62;100.00
59367;BME280;45163;47.690;11.770;2023-12-20T12:01:02;93330.25;;;3.61;100.00
59367;BME280;45163;47.690;11.770;2023-12-20T12:03:30;93333.31;;;3.77;100.00
59367;BME280;45163;47.690;11.770;2023-12-20T12:05:56;93333.69;;;3.75;100.00
59367;BME280;45163;47.690;11.770;2023-12-20T12:08:22;93330.25;;;3.64;100.00
59367;BME280;45163;47.690;11.770;2023-12-20T12:10:49;93327.09;;;3.80;100.00
59367;BME280;45163;47.690;11.770;2023-12-20T12:13:15;93336.81;;;3.60;100.00
59367;BME280;45163;47.690;11.770;2023-12-20T12:15:42;93327.91;;;3.73;100.00
59367;BME280;45163;47.690;11.770;2023-12-20T12:18:08;93316.75;;;3.64;100.00
59367;BME280;45163;47.690;11.770;2023-12-20T12:20:34;93319.84;;;3.63;100.00
59367;BME280;45163;47.690;11.770;2023-12-20T12:23:04;93331.38;;;3.74;100.00
59367;BME280;45163;47.690;11.770;2023-12-20T12:25:34;93312.09;;;3.75;100.00
59367;BME280;45163;47.690;11.770;2023-12-20T12:28:01;93313.25;;;3.78;100.00
59367;BME280;45163;47.690;11.770;2023-12-20T12:30:27;93312.47;;;3.78;100.00
59367;BME280;45163;47.690;11.770;2023-12-20T12:32:55;93304.03;;;3.65;100.00
59367;BME280;45163;47.690;11.770;2023-12-20T12:35:22;93301.66;;;3.81;100.00
59367;BME280;45163;47.690;11.770;2023-12-20T12:37:48;93305.50;;;3.87;100.00
59367;BME280;45163;47.690;11.770;2023-12-20T12:40:16;93306.97;;;4.06;100.00
59367;BME280;45163;47.690;11.770;2023-12-20T12:42:43;93306.56;;;4.04;100.00
59367;BME280;45163;47.690;11.770;2023-12-20T12:45:10;93295.41;;;4.06;100.00
59367;BME280;45163;47.690;11.770;2023-12-20T12:47:37;93293.16;;;3.83;100.00
59367;BME280;45163;47.690;11.770;2023-12-20T12:50:04;93303.50;;;4.02;100.00
59367;BME280;45163;47.690;11.770;2023-12-20T12:52:31;93300.75;;;4.13;100.00
59367;BME280;45163;47.690;11.770;2023-12-20T12:54:57;93297.28;;;4.16;100.00